Time;durP1;ratioP1;P1;durP2;ratioP2;P2;SDS_P1;SDS_P2;PMS_P1;PMS_P2;Temp;Humidity;BMP_temperature;BMP_pressure;BME280_temperature;BME280_humidity;BME280_pressure;Samples;Min_cycle;Max_cycle;Signal;HPM_P1;HPM_P2
2021/12/14 00:00:22;;;;;;;10.23;6.63;;;8.50;99.90;;;;;;5114684;28;20035;-53
2021/12/14 00:02:51;;;;;;;9.75;6.55;;;8.50;99.90;;;;;;5114898;28;20036;-57
2021/12/14 00:05:22;;;;;;;14.75;7.85;;;8.50;99.90;;;;;;5090441;28;20063;-56
2021/12/14 00:07:51;;;;;;;12.13;6.75;;;8.40;99.90;;;;;;5114087;28;20036;-56
2021/12/14 00:13:12;;;;;;;8.27;6.45;;;8.40;99.90;;;;;;5110692;28;20058;-54
2021/12/14 00:15:40;;;;;;;8.52;5.85;;;8.40;99.90;;;;;;5115022;28;20414;-57
2021/12/14 00:18:12;;;;;;;10.40;7.35;;;8.40;99.90;;;;;;5104874;28;20032;-57
2021/12/14 00:20:51;;;;;;;10.23;6.32;;;8.30;99.90;;;;;;5094981;28;20086;-56
2021/12/14 00:26:09;;;;;;;7.72;5.80;;;8.30;99.90;;;;;;5103687;28;20031;-56
2021/12/14 00:28:37;;;;;;;12.27;5.90;;;8.30;99.90;;;;;;5101808;28;20023;-55
2021/12/14 00:31:10;;;;;;;6.95;4.75;;;8.30;99.90;;;;;;5115458;28;20031;-56
2021/12/14 00:33:39;;;;;;;7.47;4.68;;;8.30;99.90;;;;;;5115116;28;20038;-56
2021/12/14 00:36:09;;;;;;;10.07;5.38;;;8.30;99.90;;;;;;5091672;28;20079;-57
2021/12/14 00:38:39;;;;;;;6.93;4.70;;;8.20;99.90;;;;;;5072051;28;20047;-56
2021/12/14 00:41:16;;;;;;;6.68;4.25;;;8.20;99.90;;;;;;5093898;28;20106;-55
2021/12/14 00:43:45;;;;;;;5.10;3.97;;;8.20;99.90;;;;;;5111086;28;20123;-56
2021/12/14 00:46:13;;;;;;;6.93;4.90;;;8.20;99.90;;;;;;5063244;28;20039;-58
2021/12/14 00:48:42;;;;;;;6.25;4.45;;;8.20;99.90;;;;;;5107322;28;20054;-57
2021/12/14 00:51:11;;;;;;;7.30;4.72;;;8.20;99.90;;;;;;5079069;28;20070;-55
2021/12/14 00:53:41;;;;;;;6.45;4.85;;;8.20;99.90;;;;;;5090628;28;20416;-56
2021/12/14 00:56:11;;;;;;;8.02;4.70;;;8.20;99.90;;;;;;5077636;28;20385;-56
2021/12/14 00:58:42;;;;;;;6.68;3.70;;;8.20;99.90;;;;;;5095646;28;20500;-56
2021/12/14 01:01:19;;;;;;;8.82;4.35;;;8.20;99.90;;;;;;5096690;28;20036;-52
2021/12/14 01:03:52;;;;;;;6.72;3.45;;;8.20;99.90;;;;;;5089000;28;20495;-57
2021/12/14 01:06:24;;;;;;;6.40;4.00;;;8.20;99.90;;;;;;5085055;28;20127;-56
2021/12/14 01:08:53;;;;;;;5.60;3.45;;;8.10;99.90;;;;;;5095901;28;20027;-56
2021/12/14 01:11:25;;;;;;;5.53;3.72;;;8.20;99.90;;;;;;5102745;28;20482;-54
2021/12/14 01:14:02;;;;;;;5.18;3.50;;;8.10;99.90;;;;;;5107137;28;20040;-55
2021/12/14 01:16:48;;;;;;;6.15;3.85;;;8.10;99.90;;;;;;5107221;28;20046;-54
2021/12/14 01:19:24;;;;;;;7.47;3.20;;;8.10;99.90;;;;;;5107055;28;20039;-56
2021/12/14 01:22:43;;;;;;;4.93;3.50;;;8.10;99.90;;;;;;5095229;28;20427;-56
2021/12/14 01:25:31;;;;;;;3.88;2.80;;;8.10;99.90;;;;;;5068717;28;20044;-54
2021/12/14 01:28:08;;;;;;;4.60;3.38;;;8.20;99.90;;;;;;5084780;28;20134;-54
2021/12/14 01:30:55;;;;;;;5.28;3.03;;;8.20;99.90;;;;;;5095585;28;20032;-55
2021/12/14 01:33:25;;;;;;;6.32;3.13;;;8.20;99.90;;;;;;5095764;28;20055;-56
2021/12/14 01:35:54;;;;;;;5.32;3.13;;;8.20;99.90;;;;;;5073483;28;20092;-55
2021/12/14 01:41:02;;;;;;;7.03;3.10;;;8.20;99.90;;;;;;5092975;28;20390;-56
2021/12/14 01:43:38;;;;;;;4.70;3.05;;;8.30;99.90;;;;;;5104218;28;20430;-56
2021/12/14 01:46:35;;;;;;;5.05;3.10;;;8.30;99.90;;;;;;5092632;28;20035;-55
2021/12/14 01:49:41;;;;;;;5.82;3.28;;;8.30;99.90;;;;;;5021920;28;20412;-55
2021/12/14 01:52:34;;;;;;;4.88;3.10;;;8.30;99.90;;;;;;5023946;28;21719;-53
2021/12/14 01:55:22;;;;;;;5.40;3.33;;;8.20;99.90;;;;;;5061477;28;20052;-57
2021/12/14 01:57:53;;;;;;;8.32;4.25;;;8.20;99.90;;;;;;5104789;28;20140;-55
2021/12/14 02:00:33;;;;;;;6.25;3.58;;;8.20;99.90;;;;;;5095368;28;20039;-56
2021/12/14 02:03:06;;;;;;;7.57;3.60;;;8.20;99.90;;;;;;5102480;28;20024;-54
2021/12/14 02:05:39;;;;;;;4.38;2.90;;;8.10;99.90;;;;;;5100099;28;20120;-55
2021/12/14 02:08:26;;;;;;;6.47;3.55;;;8.10;99.90;;;;;;5058378;28;20464;-57
2021/12/14 02:10:56;;;;;;;6.53;3.15;;;8.10;99.90;;;;;;5078135;28;20031;-55
2021/12/14 02:13:33;;;;;;;6.40;3.53;;;8.10;99.90;;;;;;5094523;28;20036;-53
2021/12/14 02:16:02;;;;;;;;;;;8.10;99.90;;;;;;5078548;28;20052;-55
2021/12/14 02:18:44;;;;;;;5.88;2.88;;;8.00;99.90;;;;;;5095386;28;20321;-55
2021/12/14 02:21:14;;;;;;;8.32;3.72;;;8.00;99.90;;;;;;5077488;28;20063;-58
2021/12/14 02:23:48;;;;;;;4.07;2.65;;;8.00;99.90;;;;;;5113390;28;20028;-55
2021/12/14 02:26:22;;;;;;;5.32;2.63;;;8.00;99.90;;;;;;5095402;28;20038;-55
2021/12/14 02:28:50;;;;;;;3.90;2.40;;;8.00;99.90;;;;;;5095804;28;20028;-55
2021/12/14 02:31:22;;;;;;;4.57;2.72;;;8.00;99.90;;;;;;5079339;28;20107;-55
2021/12/14 02:33:54;;;;;;;8.27;3.22;;;8.00;99.90;;;;;;5079448;28;20065;-55
2021/12/14 02:36:26;;;;;;;7.00;3.58;;;8.00;99.90;;;;;;5079236;28;20084;-57
2021/12/14 02:39:08;;;;;;;7.47;2.90;;;8.00;99.90;;;;;;5096034;28;20093;-55
2021/12/14 02:41:51;;;;;;;7.18;3.10;;;8.00;99.90;;;;;;5079195;28;20046;-54
2021/12/14 02:44:23;;;;;;;5.85;3.15;;;7.90;99.90;;;;;;5062981;28;20050;-57
2021/12/14 02:46:57;;;;;;;7.43;3.28;;;7.90;99.90;;;;;;5096453;28;20040;-56
2021/12/14 02:49:32;;;;;;;3.45;2.30;;;7.90;99.90;;;;;;5100019;28;20040;-57
2021/12/14 02:52:05;;;;;;;3.63;2.42;;;7.90;99.90;;;;;;5086022;28;20051;-56
2021/12/14 02:54:55;;;;;;;5.63;2.72;;;7.90;99.90;;;;;;5079729;28;20036;-56
2021/12/14 02:57:33;;;;;;;5.22;2.33;;;7.90;99.90;;;;;;5079618;28;20032;-56
2021/12/14 03:00:04;;;;;;;4.47;2.60;;;8.00;99.90;;;;;;5079466;28;20461;-57
2021/12/14 03:02:34;;;;;;;4.90;3.30;;;8.00;99.90;;;;;;5046381;28;20581;-56
2021/12/14 03:05:17;;;;;;;3.90;2.50;;;8.00;99.90;;;;;;5079378;28;20047;-56
2021/12/14 03:07:51;;;;;;;4.03;2.85;;;7.90;99.90;;;;;;5079343;28;20113;-56
2021/12/14 03:13:05;;;;;;;5.13;2.70;;;7.90;99.90;;;;;;5079143;28;20470;-56
2021/12/14 03:15:48;;;;;;;5.68;3.30;;;7.80;99.90;;;;;;5079266;28;20566;-56
2021/12/14 03:18:39;;;;;;;4.72;2.28;;;7.80;99.90;;;;;;5079019;28;20200;-56
2021/12/14 03:21:18;;;;;;;4.35;2.38;;;7.80;99.90;;;;;;5079216;28;20127;-56
2021/12/14 03:23:54;;;;;;;4.03;2.35;;;7.80;99.90;;;;;;5079001;28;20509;-57
2021/12/14 03:26:25;;;;;;;6.53;2.70;;;7.80;99.90;;;;;;5045809;28;20044;-57
2021/12/14 03:28:56;;;;;;;4.20;3.35;;;7.70;99.90;;;;;;5097165;28;20530;-55
2021/12/14 03:31:33;;;;;;;6.43;2.63;;;7.70;99.90;;;;;;5062017;28;20051;-57
2021/12/14 03:34:06;;;;;;;7.75;3.08;;;7.70;99.90;;;;;;5079108;28;20067;-57
2021/12/14 03:36:48;;;;;;;5.85;2.65;;;7.70;99.90;;;;;;5078919;28;20050;-56
2021/12/14 03:39:20;;;;;;;4.70;3.25;;;7.70;99.90;;;;;;5078461;28;20032;-56
2021/12/14 03:41:59;;;;;;;7.05;2.95;;;7.70;99.90;;;;;;5078675;28;20032;-56
2021/12/14 03:44:44;;;;;;;3.88;2.42;;;7.70;99.90;;;;;;5096802;28;20489;-56
2021/12/14 03:47:12;;;;;;;4.35;2.92;;;7.70;99.90;;;;;;5062026;28;20048;-56
2021/12/14 03:49:55;;;;;;;4.28;2.80;;;7.70;99.90;;;;;;5062070;28;20036;-55
2021/12/14 03:52:32;;;;;;;3.38;2.30;;;7.70;99.90;;;;;;5075700;28;20048;-56
2021/12/14 03:55:07;;;;;;;4.57;2.67;;;7.70;99.90;;;;;;5095555;28;20072;-56
2021/12/14 03:57:35;;;;;;;4.20;3.38;;;7.70;99.90;;;;;;5113920;28;20127;-57
2021/12/14 04:00:10;;;;;;;4.55;2.67;;;7.80;99.90;;;;;;5081508;28;20059;-55
2021/12/14 04:02:49;;;;;;;3.40;2.25;;;7.80;99.90;;;;;;5116762;28;20347;-57
2021/12/14 04:05:25;;;;;;;5.50;2.95;;;7.80;99.90;;;;;;5098474;28;20368;-56
2021/12/14 04:07:52;;;;;;;6.75;3.08;;;7.80;99.90;;;;;;5116701;28;20032;-57
2021/12/14 04:10:25;;;;;;;3.60;2.58;;;7.80;99.90;;;;;;5098041;28;20067;-58
2021/12/14 04:12:54;;;;;;;5.90;2.50;;;7.70;99.90;;;;;;5097902;28;20035;-57
2021/12/14 04:15:22;;;;;;;6.72;2.42;;;7.70;99.90;;;;;;5097766;28;20059;-56
2021/12/14 04:17:51;;;;;;;6.13;2.80;;;7.70;99.90;;;;;;5097960;28;20114;-57
2021/12/14 04:20:28;;;;;;;3.83;2.35;;;7.70;99.90;;;;;;5098028;28;20090;-56
2021/12/14 04:22:56;;;;;;;4.50;2.78;;;7.70;99.90;;;;;;5098120;28;20089;-58
2021/12/14 04:25:30;;;;;;;5.38;2.83;;;7.70;99.90;;;;;;5081300;28;20039;-57
2021/12/14 04:28:00;;;;;;;4.32;2.60;;;7.70;99.90;;;;;;5097789;28;20102;-57
2021/12/14 04:30:28;;;;;;;5.35;3.15;;;7.70;99.90;;;;;;5097925;28;20359;-56
2021/12/14 04:33:03;;;;;;;4.10;3.20;;;7.70;99.90;;;;;;5080799;28;20055;-57
2021/12/14 04:35:37;;;;;;;5.90;2.88;;;7.70;99.90;;;;;;5097610;28;20451;-57
2021/12/14 04:38:15;;;;;;;3.97;2.83;;;7.70;99.90;;;;;;5098001;28;20415;-57
2021/12/14 04:52:00;;;;;;;7.63;2.72;;;7.70;99.90;;;;;;5115619;28;20039;-56
2021/12/14 04:54:30;;;;;;;5.20;2.28;;;7.80;99.90;;;;;;5097680;28;20031;-57
2021/12/14 04:56:59;;;;;;;7.50;2.92;;;7.80;99.90;;;;;;5097550;28;20061;-56
2021/12/14 04:59:30;;;;;;;4.82;2.55;;;7.80;99.90;;;;;;5080642;28;20035;-57
2021/12/14 05:02:13;;;;;;;3.92;2.80;;;7.80;99.90;;;;;;5097627;28;20036;-57
2021/12/14 05:05:06;;;;;;;11.65;3.00;;;7.90;99.90;;;;;;5097447;28;20035;-56
2021/12/14 05:10:20;;;;;;;7.35;3.38;;;7.90;99.90;;;;;;5079713;28;20035;-56
2021/12/14 05:12:51;;;;;;;4.70;2.53;;;7.90;99.90;;;;;;5097003;28;20043;-57
2021/12/14 05:15:25;;;;;;;4.32;2.22;;;7.90;99.90;;;;;;5097222;28;20039;-57
2021/12/14 05:17:57;;;;;;;4.88;2.95;;;7.90;99.90;;;;;;5079479;28;20051;-57
2021/12/14 05:20:26;;;;;;;5.20;3.25;;;7.90;99.90;;;;;;5097327;28;20023;-58
2021/12/14 05:22:54;;;;;;;4.28;2.20;;;8.00;99.90;;;;;;5097144;28;20036;-57
2021/12/14 05:25:27;;;;;;;6.00;2.53;;;8.00;99.90;;;;;;5097190;28;20031;-58
2021/12/14 05:28:13;;;;;;;4.85;2.65;;;8.00;99.90;;;;;;5096964;28;20127;-57
2021/12/14 05:30:45;;;;;;;3.40;2.45;;;8.00;99.90;;;;;;5097222;28;20351;-57
2021/12/14 05:33:33;;;;;;;4.03;2.58;;;8.00;99.90;;;;;;5096775;28;20032;-57
2021/12/14 05:36:17;;;;;;;4.15;2.75;;;8.00;99.90;;;;;;5079910;28;20040;-57
2021/12/14 05:44:25;;;;;;;6.07;2.40;;;8.10;99.90;;;;;;5096672;28;20050;-57
2021/12/14 05:46:59;;;;;;;4.47;2.55;;;8.10;99.90;;;;;;5096556;28;20027;-56
2021/12/14 05:49:37;;;;;;;4.22;2.38;;;8.10;99.90;;;;;;5080901;28;20036;-56
2021/12/14 05:52:12;;;;;;;3.45;2.33;;;8.10;99.90;;;;;;5079946;28;20055;-56
2021/12/14 05:54:40;;;;;;;5.28;2.20;;;8.10;99.90;;;;;;5114676;28;20042;-56
2021/12/14 05:57:14;;;;;;;5.35;2.45;;;8.10;99.90;;;;;;5096491;28;20424;-58
2021/12/14 05:59:43;;;;;;;4.10;2.85;;;8.10;99.90;;;;;;5079434;28;20036;-56
2021/12/14 06:02:11;;;;;;;6.10;2.88;;;8.10;99.90;;;;;;5096402;28;20031;-57
2021/12/14 06:04:46;;;;;;;4.70;2.65;;;8.10;99.90;;;;;;5096481;28;20088;-57
2021/12/14 06:07:15;;;;;;;6.93;2.70;;;8.10;99.90;;;;;;5079660;28;20080;-57
2021/12/14 06:09:49;;;;;;;6.00;2.58;;;8.10;99.90;;;;;;5096422;28;20052;-57
2021/12/14 06:12:37;;;;;;;3.75;2.25;;;8.10;99.90;;;;;;5082168;28;20028;-57
2021/12/14 06:15:17;;;;;;;3.92;2.78;;;8.10;99.90;;;;;;5096222;28;20046;-56
2021/12/14 06:17:45;;;;;;;4.95;3.25;;;8.10;99.90;;;;;;5114603;28;20035;-57
2021/12/14 06:20:45;;;;;;;4.10;2.45;;;8.20;99.90;;;;;;5068940;28;20056;-56
2021/12/14 06:23:13;;;;;;;6.13;3.10;;;8.20;99.90;;;;;;5096086;28;20044;-57
2021/12/14 06:26:04;;;;;;;5.97;3.28;;;8.20;99.90;;;;;;5096412;28;20107;-57
2021/12/14 06:28:32;;;;;;;5.60;2.90;;;8.20;99.90;;;;;;5114076;28;20031;-56
2021/12/14 06:31:03;;;;;;;8.15;3.33;;;8.20;99.90;;;;;;5095960;28;20031;-56
2021/12/14 06:33:33;;;;;;;6.75;2.95;;;8.40;99.90;;;;;;5095763;28;20031;-56
2021/12/14 06:36:11;;;;;;;4.40;2.90;;;8.60;99.90;;;;;;5079215;28;20039;-55
2021/12/14 06:38:38;;;;;;;6.05;2.83;;;8.90;99.90;;;;;;5096037;28;20043;-57
2021/12/14 06:41:18;;;;;;;4.93;2.17;;;9.10;99.90;;;;;;5079030;28;20059;-58
2021/12/14 06:43:59;;;;;;;5.90;2.83;;;9.10;99.90;;;;;;5081068;28;20035;-57
2021/12/14 06:46:34;;;;;;;4.32;2.45;;;9.10;99.90;;;;;;5113752;28;20035;-56
2021/12/14 06:49:12;;;;;;;6.63;2.67;;;9.10;99.90;;;;;;5079142;28;20046;-57
2021/12/14 06:51:48;;;;;;;5.70;3.05;;;9.10;99.90;;;;;;5095213;28;20047;-57
2021/12/14 06:54:38;;;;;;;6.32;3.00;;;9.10;99.90;;;;;;5113093;28;20039;-58
2021/12/14 06:57:25;;;;;;;10.73;3.55;;;9.20;99.90;;;;;;5098664;28;20465;-57
2021/12/14 07:00:08;;;;;;;7.43;3.83;;;9.90;99.90;;;;;;5079048;28;20355;-58
2021/12/14 07:02:57;;;;;;;6.32;3.08;;;10.60;99.90;;;;;;5113155;28;20051;-57
2021/12/14 07:05:39;;;;;;;7.22;3.58;;;11.60;99.90;;;;;;5079156;28;20048;-57
2021/12/14 07:08:14;;;;;;;6.50;3.38;;;12.50;99.90;;;;;;5095615;28;20035;-57
2021/12/14 07:10:44;;;;;;;6.95;3.95;;;13.00;99.90;;;;;;5095662;28;20035;-57
2021/12/14 07:13:19;;;;;;;9.07;4.30;;;12.70;99.90;;;;;;5113588;28;20487;-57
2021/12/14 07:15:47;;;;;;;8.95;3.22;;;12.20;99.90;;;;;;5079007;28;20031;-58
2021/12/14 07:18:15;;;;;;;9.82;3.80;;;11.60;99.90;;;;;;5113784;28;20059;-57
2021/12/14 07:20:49;;;;;;;6.35;3.55;;;11.10;99.90;;;;;;5113837;28;20043;-57
2021/12/14 07:23:31;;;;;;;6.55;4.00;;;10.70;99.90;;;;;;5113647;28;20039;-57
2021/12/14 07:26:01;;;;;;;5.38;3.78;;;10.40;99.90;;;;;;5095633;28;20063;-57
2021/12/14 07:28:43;;;;;;;8.45;3.55;;;10.30;99.90;;;;;;5095508;28;20040;-57
2021/12/14 07:31:23;;;;;;;8.15;4.30;;;10.60;99.90;;;;;;5113723;28;20047;-57
2021/12/14 07:33:59;;;;;;;6.88;4.65;;;10.70;99.90;;;;;;5080817;28;20231;-57
2021/12/14 07:36:30;;;;;;;7.63;4.10;;;10.70;99.90;;;;;;5099385;28;20036;-57
2021/12/14 07:39:06;;;;;;;6.50;3.63;;;11.90;99.90;;;;;;5099046;28;20039;-58
2021/12/14 07:41:35;;;;;;;7.47;4.07;;;13.90;99.90;;;;;;5117219;28;20040;-58
2021/12/14 07:44:14;;;;;;;8.57;3.90;;;15.80;97.80;;;;;;5098997;28;20031;-57
2021/12/14 07:46:56;;;;;;;6.43;4.32;;;17.40;95.40;;;;;;5116969;28;20038;-58
2021/12/14 07:49:32;;;;;;;17.60;6.30;;;18.40;93.80;;;;;;5082107;28;20431;-58
2021/12/14 07:52:05;;;;;;;;;;;19.00;92.60;;;;;;5082308;28;20055;-57
2021/12/14 07:54:37;;;;;;;10.93;5.40;;;19.20;91.90;;;;;;5116837;28;19954;-57
2021/12/14 07:57:10;;;;;;;6.60;4.68;;;19.30;91.60;;;;;;5116762;28;20036;-58
2021/12/14 07:59:45;;;;;;;5.28;3.90;;;19.20;91.50;;;;;;5117140;28;20507;-58
2021/12/14 08:02:19;;;;;;;9.07;3.63;;;19.10;91.40;;;;;;5098798;28;20032;-58
2021/12/14 08:04:53;;;;;;;8.05;4.03;;;19.00;91.50;;;;;;5116967;28;20104;-58
2021/12/14 08:07:38;;;;;;;7.40;4.53;;;18.90;91.50;;;;;;5098674;28;20478;-56
2021/12/14 08:10:21;;;;;;;7.03;4.03;;;18.80;91.60;;;;;;5098724;28;20485;-57
2021/12/14 08:12:52;;;;;;;6.25;2.85;;;18.60;91.90;;;;;;5116628;28;20560;-57
2021/12/14 08:15:26;;;;;;;4.03;2.28;;;18.10;91.90;;;;;;5082205;28;20040;-57
2021/12/14 08:18:20;;;;;;;3.30;2.45;;;17.20;92.50;;;;;;5098403;28;20042;-57
2021/12/14 08:20:57;;;;;;;5.13;2.50;;;16.20;93.20;;;;;;5112581;28;20075;-58
2021/12/14 08:23:32;;;;;;;3.22;2.22;;;15.30;94.10;;;;;;5098404;28;20036;-57
2021/12/14 08:26:07;;;;;;;3.25;1.88;;;14.50;95.10;;;;;;5116481;28;20039;-57
2021/12/14 08:29:06;;;;;;;4.30;2.22;;;13.90;96.40;;;;;;5116220;28;20035;-57
2021/12/14 08:31:57;;;;;;;4.03;2.15;;;13.30;97.50;;;;;;5079508;28;20047;-57
2021/12/14 08:34:30;;;;;;;4.70;2.95;;;12.90;98.00;;;;;;5116168;28;20060;-57
2021/12/14 08:37:10;;;;;;;6.97;4.20;;;12.50;98.50;;;;;;5097995;28;20032;-57
2021/12/14 08:39:52;;;;;;;5.53;3.33;;;12.30;98.80;;;;;;5097965;28;20120;-58
2021/12/14 08:42:30;;;;;;;5.10;2.03;;;12.10;99.10;;;;;;5081203;28;20067;-57
2021/12/14 08:45:24;;;;;;;3.92;2.28;;;11.90;99.50;;;;;;5114825;28;20046;-57
2021/12/14 08:48:26;;;;;;;3.40;2.30;;;11.80;99.80;;;;;;5097790;28;20043;-57
2021/12/14 08:50:59;;;;;;;5.57;2.20;;;11.80;99.90;;;;;;5115773;28;20045;-58
2021/12/14 08:53:34;;;;;;;4.45;2.25;;;12.00;99.90;;;;;;5115793;28;20043;-57
2021/12/14 08:56:07;;;;;;;5.20;2.63;;;12.00;99.90;;;;;;5115773;28;20434;-57
2021/12/14 08:58:35;;;;;;;5.07;2.88;;;12.00;99.90;;;;;;5115665;28;20032;-57
2021/12/14 09:01:11;;;;;;;9.23;2.85;;;12.10;99.90;;;;;;5097592;28;20050;-57
2021/12/14 09:03:44;;;;;;;4.40;3.20;;;12.30;99.90;;;;;;5115801;28;20093;-57
2021/12/14 09:06:16;;;;;;;4.50;2.80;;;12.50;99.90;;;;;;5115523;28;20084;-58
2021/12/14 09:08:47;;;;;;;4.75;2.67;;;12.80;99.90;;;;;;5115395;28;20040;-58
2021/12/14 09:11:21;;;;;;;5.75;2.80;;;12.90;99.50;;;;;;5115339;28;20546;-58
2021/12/14 09:13:49;;;;;;;5.93;2.70;;;13.10;99.20;;;;;;5115444;28;20188;-57
2021/12/14 09:16:30;;;;;;;7.57;3.35;;;13.20;98.90;;;;;;5115353;28;20040;-58
2021/12/14 09:19:08;;;;;;;4.35;2.20;;;13.20;98.60;;;;;;5115346;28;20031;-57
2021/12/14 09:21:40;;;;;;;4.40;2.97;;;13.40;98.60;;;;;;5080794;28;20365;-58
2021/12/14 09:24:15;;;;;;;3.78;2.50;;;13.40;98.40;;;;;;5115234;28;20126;-57
2021/12/14 09:26:49;;;;;;;4.22;2.60;;;13.40;98.40;;;;;;5115102;28;20493;-57
2021/12/14 09:29:20;;;;;;;4.18;2.58;;;13.40;98.40;;;;;;5096886;28;20553;-58
2021/12/14 09:31:51;;;;;;;3.00;2.05;;;13.50;98.10;;;;;;5096964;28;20186;-57
2021/12/14 09:34:22;;;;;;;3.75;2.28;;;13.40;98.30;;;;;;5114946;28;20035;-57
2021/12/14 09:36:52;;;;;;;3.30;2.10;;;13.60;98.00;;;;;;5097206;28;20540;-57
2021/12/14 09:39:26;;;;;;;3.17;2.47;;;13.70;97.50;;;;;;5115239;28;20419;-58
2021/12/14 09:41:55;;;;;;;3.75;2.20;;;13.60;97.50;;;;;;5080423;28;20377;-58
2021/12/14 09:44:26;;;;;;;5.82;2.35;;;13.60;97.60;;;;;;5114893;28;20047;-57
2021/12/14 09:46:58;;;;;;;3.60;2.53;;;13.30;97.20;;;;;;5096388;28;20047;-57
2021/12/14 09:49:27;;;;;;;5.43;2.80;;;13.10;97.40;;;;;;5096743;28;20044;-57
2021/12/14 09:52:06;;;;;;;6.95;2.28;;;13.00;97.70;;;;;;5096580;28;20117;-58
2021/12/14 09:54:35;;;;;;;6.00;2.55;;;13.00;98.10;;;;;;5114456;28;20040;-57
2021/12/14 09:57:11;;;;;;;5.25;2.70;;;13.00;98.30;;;;;;5114104;28;20032;-57
2021/12/14 09:59:40;;;;;;;5.80;2.53;;;12.90;97.90;;;;;;5114545;28;20492;-58
2021/12/14 10:02:21;;;;;;;4.03;2.25;;;12.60;97.50;;;;;;5079312;28;20039;-58
2021/12/14 10:04:53;;;;;;;9.85;2.95;;;12.60;97.80;;;;;;5114232;28;20055;-57
2021/12/14 10:07:22;;;;;;;3.67;2.17;;;12.50;97.40;;;;;;5096428;28;20097;-57
2021/12/14 10:09:53;;;;;;;5.07;2.40;;;12.50;97.30;;;;;;5114062;28;20481;-56
2021/12/14 10:14:53;;;;;;;3.83;2.70;;;12.40;96.90;;;;;;5114041;28;20036;-57
2021/12/14 10:17:23;;;;;;;4.55;3.03;;;12.20;96.80;;;;;;5095583;28;20043;-58
2021/12/14 10:19:51;;;;;;;3.78;2.90;;;12.30;97.00;;;;;;5114113;28;20039;-57
2021/12/14 10:22:23;;;;;;;6.93;3.20;;;12.50;97.20;;;;;;5113982;28;20048;-57
2021/12/14 10:24:54;;;;;;;4.57;2.42;;;12.60;97.10;;;;;;5114080;28;20478;-58
2021/12/14 10:27:25;;;;;;;5.13;2.83;;;12.70;97.00;;;;;;5114026;28;20097;-57
2021/12/14 10:29:54;;;;;;;5.82;3.70;;;12.80;96.90;;;;;;5095882;28;20115;-57
2021/12/14 10:32:26;;;;;;;9.88;4.05;;;12.80;97.10;;;;;;5095679;28;20032;-54
2021/12/14 10:34:59;;;;;;;8.48;2.70;;;12.70;97.30;;;;;;5113960;28;20031;-58
2021/12/14 10:37:50;;;;;;;3.75;2.50;;;12.80;97.60;;;;;;5078873;28;20049;-57
2021/12/14 10:43:17;;;;;;;3.17;2.08;;;13.20;97.00;;;;;;5095746;28;20031;-58
2021/12/14 10:45:59;;;;;;;4.57;2.60;;;13.40;96.50;;;;;;5095957;28;20044;-57
2021/12/14 10:48:31;;;;;;;4.53;1.90;;;13.50;95.90;;;;;;5095803;28;20085;-56
2021/12/14 10:51:04;;;;;;;3.42;2.28;;;13.70;95.40;;;;;;5095453;28;20047;-58
2021/12/14 10:53:34;;;;;;;4.40;1.95;;;13.70;95.40;;;;;;5113614;28;20048;-57
2021/12/14 10:56:09;;;;;;;6.00;2.45;;;13.80;95.70;;;;;;5113654;28;20051;-57
2021/12/14 10:58:37;;;;;;;5.32;2.78;;;13.80;96.20;;;;;;5114196;28;20035;-58
2021/12/14 11:01:17;;;;;;;6.28;2.88;;;13.80;96.80;;;;;;5095588;28;20031;-58
2021/12/14 11:03:51;;;;;;;3.47;1.90;;;13.90;97.10;;;;;;5095141;28;20050;-58
2021/12/14 11:06:27;;;;;;;3.05;2.00;;;13.80;97.20;;;;;;5113404;28;20381;-57
2021/12/14 11:11:47;;;;;;;3.78;2.30;;;13.50;97.80;;;;;;5099512;28;20071;-57
2021/12/14 11:14:19;;;;;;;5.30;2.78;;;13.30;98.00;;;;;;5099119;28;20583;-58
2021/12/14 11:19:44;;;;;;;10.07;3.67;;;13.00;98.90;;;;;;5117423;28;20043;-57
2021/12/14 11:22:18;;;;;;;8.25;4.70;;;12.90;98.90;;;;;;5099336;28;20071;-57
2021/12/14 11:24:56;;;;;;;11.38;6.40;;;12.80;99.00;;;;;;5099585;28;20039;-57
2021/12/14 11:27:28;;;;;;;7.63;4.43;;;12.80;99.10;;;;;;5117681;28;20051;-58
2021/12/14 11:30:18;;;;;;;8.55;4.32;;;12.80;99.00;;;;;;5117091;28;20399;-57
2021/12/14 11:33:06;;;;;;;6.40;3.15;;;12.90;98.90;;;;;;5098941;28;20430;-58
2021/12/14 11:35:44;;;;;;;5.50;3.67;;;12.80;98.90;;;;;;5098683;28;20046;-57
2021/12/14 11:38:24;;;;;;;5.80;3.03;;;12.70;98.90;;;;;;5117155;28;20117;-58
2021/12/14 11:40:52;;;;;;;5.55;2.38;;;12.70;98.40;;;;;;5099080;28;20046;-57
2021/12/14 11:43:24;;;;;;;4.00;2.30;;;12.70;98.10;;;;;;5117018;28;20568;-57
2021/12/14 11:45:54;;;;;;;6.53;2.40;;;12.80;98.40;;;;;;5116951;28;20051;-58
2021/12/14 11:57:47;;;;;;;5.22;3.75;;;12.80;98.40;;;;;;5114473;28;20050;-57
2021/12/14 12:00:20;;;;;;;7.15;4.03;;;12.60;97.70;;;;;;5098437;28;20069;-58
2021/12/14 12:02:47;;;;;;;11.27;6.43;;;12.60;98.10;;;;;;5116544;28;20126;-56
2021/12/14 12:05:30;;;;;;;6.05;4.55;;;12.70;98.30;;;;;;5098558;28;20051;-57
2021/12/14 12:11:05;;;;;;;7.70;3.53;;;12.80;97.80;;;;;;5116465;28;20101;-58
2021/12/14 12:13:36;;;;;;;5.68;4.10;;;12.90;97.80;;;;;;5116509;28;20036;-58
2021/12/14 12:16:21;;;;;;;5.13;3.20;;;13.00;98.40;;;;;;5081667;28;20051;-54
2021/12/14 12:19:17;;;;;;;10.80;4.30;;;13.20;98.40;;;;;;5097999;28;20489;-58
2021/12/14 12:21:47;;;;;;;9.25;5.55;;;13.30;98.30;;;;;;5116059;28;20122;-56
2021/12/14 12:24:35;;;;;;;18.23;6.47;;;13.50;98.70;;;;;;5116248;28;20070;-58
2021/12/14 12:27:20;;;;;;;7.38;4.68;;;13.70;97.50;;;;;;5116023;28;20031;-58
2021/12/14 12:30:09;;;;;;;9.30;5.03;;;13.40;96.20;;;;;;5098023;28;20044;-58
2021/12/14 12:32:37;;;;;;;6.25;3.78;;;13.30;96.40;;;;;;5081435;28;20480;-57
2021/12/14 12:35:29;;;;;;;6.80;4.15;;;13.20;96.50;;;;;;5116043;28;20450;-58
2021/12/14 12:37:58;;;;;;;8.48;4.43;;;13.20;96.60;;;;;;5116259;28;20077;-58
2021/12/14 12:40:48;;;;;;;6.70;4.22;;;13.20;96.20;;;;;;5116249;28;20126;-58
2021/12/14 12:43:18;;;;;;;10.75;4.95;;;13.20;95.90;;;;;;5115925;28;20097;-57
2021/12/14 12:46:01;;;;;;;6.05;3.90;;;13.20;96.20;;;;;;5116154;28;20408;-57
2021/12/14 12:49:04;;;;;;;6.97;4.45;;;13.10;95.60;;;;;;5115772;28;20038;-56
2021/12/14 12:51:52;;;;;;;8.82;5.45;;;12.90;95.20;;;;;;5100103;28;20066;-56
2021/12/14 12:54:31;;;;;;;9.35;5.53;;;12.90;96.00;;;;;;5097875;28;20039;-57
2021/12/14 12:57:11;;;;;;;8.40;5.43;;;12.80;96.50;;;;;;5115658;28;20042;-57
2021/12/14 12:59:51;;;;;;;7.03;3.60;;;12.90;96.60;;;;;;5115944;28;20035;-57
2021/12/14 13:02:34;;;;;;;4.47;3.30;;;12.90;96.30;;;;;;5116015;28;20057;-58
2021/12/14 13:05:09;;;;;;;9.40;5.20;;;13.00;96.20;;;;;;5115561;28;20047;-58
2021/12/14 13:07:47;;;;;;;6.37;4.77;;;13.00;96.30;;;;;;5115625;28;20031;-56
2021/12/14 13:10:23;;;;;;;10.00;5.38;;;13.00;96.60;;;;;;5115428;28;20035;-58
2021/12/14 13:13:26;;;;;;;8.45;5.00;;;13.00;97.00;;;;;;5080474;28;20045;-57
2021/12/14 13:15:55;;;;;;;9.02;4.95;;;12.90;96.80;;;;;;5088032;28;20035;-55
2021/12/14 13:18:31;;;;;;;6.70;4.05;;;12.80;97.30;;;;;;4733036;28;20042;-58
2021/12/14 13:21:41;;;;;;;4.30;2.67;;;12.70;96.50;;;;;;5076707;28;20032;-57
2021/12/14 13:24:13;;;;;;;5.72;3.97;;;12.70;96.70;;;;;;4990522;28;20121;-58
2021/12/14 13:26:53;;;;;;;5.68;2.88;;;12.70;97.00;;;;;;5044069;28;20448;-58
2021/12/14 13:29:44;;;;;;;5.53;3.20;;;12.60;96.90;;;;;;5089918;28;20036;-58
2021/12/14 13:32:14;;;;;;;6.07;4.20;;;12.70;97.10;;;;;;5082334;28;20041;-58
2021/12/14 13:34:42;;;;;;;5.63;3.65;;;12.70;97.20;;;;;;5044695;28;20123;-58
2021/12/14 13:37:12;;;;;;;4.95;3.08;;;12.70;97.40;;;;;;5080099;28;20043;-58
2021/12/14 13:39:40;;;;;;;6.57;3.38;;;12.50;97.50;;;;;;5049246;28;20519;-59
2021/12/14 13:42:17;;;;;;;6.53;3.83;;;12.60;97.70;;;;;;5065303;28;20373;-58
2021/12/14 13:44:50;;;;;;;;;;;12.60;97.80;;;;;;5056388;28;20591;-58
2021/12/14 13:47:25;;;;;;;6.22;4.75;;;12.50;97.70;;;;;;5056312;28;20342;-58
2021/12/14 13:49:55;;;;;;;6.93;3.95;;;12.60;98.70;;;;;;5055937;28;20482;-58
2021/12/14 13:52:23;;;;;;;6.22;3.70;;;12.60;98.20;;;;;;5074617;28;20502;-56
2021/12/14 13:55:15;;;;;;;70.30;12.85;;;12.60;99.10;;;;;;5091157;28;20482;-58
2021/12/14 13:57:53;;;;;;;46.35;13.02;;;12.60;97.80;;;;;;5037651;28;20049;-56
2021/12/14 14:00:30;;;;;;;41.00;8.40;;;12.60;97.50;;;;;;5073283;28;20037;-57
2021/12/14 14:02:58;;;;;;;;;;;12.40;96.90;;;;;;5078351;28;20040;-57
2021/12/14 14:05:27;;;;;;;8.18;4.15;;;12.40;96.90;;;;;;5093888;28;19943;-58
2021/12/14 14:07:59;;;;;;;11.00;6.95;;;12.40;98.90;;;;;;5084092;28;20465;-58
2021/12/14 14:10:30;;;;;;;7.53;5.18;;;12.80;99.90;;;;;;5069893;28;20036;-58
2021/12/14 14:13:07;;;;;;;5.65;3.25;;;12.90;99.80;;;;;;5064109;28;20043;-58
2021/12/14 14:15:37;;;;;;;9.75;3.15;;;12.80;97.00;;;;;;5071135;28;20041;-58
2021/12/14 14:18:09;;;;;;;5.55;2.88;;;12.60;96.90;;;;;;5081057;28;20041;-58
2021/12/14 14:20:45;;;;;;;6.88;4.80;;;12.60;97.10;;;;;;5078578;28;20064;-58
2021/12/14 14:23:19;;;;;;;;;;;12.40;97.20;;;;;;5071011;28;20036;-58
2021/12/14 14:26:00;;;;;;;11.90;6.65;;;12.30;97.70;;;;;;5060078;28;20010;-58
2021/12/14 14:28:34;;;;;;;7.80;4.45;;;12.20;98.00;;;;;;5083619;28;20143;-58
2021/12/14 14:31:06;;;;;;;6.50;3.72;;;12.20;98.10;;;;;;5073449;28;20064;-58